DataTemp.
Ø
Temp.
Max
Temp.
Min
UmiditàPressionePioggiaVento
Ø
Vento
dir. Ø
Vento
Max
Indice UV
Max
01.07.2020 00:0021.9°C22.0°C21.9°C66.8%1013.0hPa0.0mm3.4km/hSSE5.4km/h0uvi
01.07.2020 00:0521.9°C21.9°C21.9°C67.0%1013.0hPa0.0mm2.6km/hSE4.3km/h0uvi
01.07.2020 00:1021.8°C21.9°C21.8°C67.2%1012.5hPa0.0mm2.4km/hSSW5.0km/h0uvi
01.07.2020 00:1521.8°C21.8°C21.8°C68.0%1012.0hPa0.0mm1.5km/hSSE2.5km/h0uvi
01.07.2020 00:2021.8°C21.8°C21.8°C68.0%1012.0hPa0.0mm0.0km/hSSE1.4km/h0uvi
01.07.2020 00:2521.7°C21.8°C21.7°C68.0%1012.0hPa0.0mm2.0km/hSSW6.8km/h0uvi
01.07.2020 00:3021.7°C21.7°C21.7°C68.0%1012.0hPa0.0mm3.2km/hSSE4.7km/h0uvi
01.07.2020 00:3521.7°C21.7°C21.7°C68.0%1012.0hPa0.0mm2.2km/hSSE4.0km/h0uvi
01.07.2020 00:4021.7°C21.7°C21.6°C68.0%1012.0hPa0.0mm1.8km/hSSE5.0km/h0uvi
01.07.2020 00:4521.6°C21.6°C21.6°C68.0%1012.0hPa0.0mm2.9km/hSE4.3km/h0uvi
01.07.2020 00:5021.6°C21.6°C21.6°C68.2%1012.0hPa0.0mm3.1km/hSSE4.7km/h0uvi
01.07.2020 00:5521.6°C21.6°C21.5°C68.5%1012.0hPa0.0mm2.4km/hSSE3.2km/h0uvi
01.07.2020 01:0021.5°C21.5°C21.5°C69.0%1012.0hPa0.0mm2.2km/hSSE4.0km/h0uvi
01.07.2020 01:0521.5°C21.5°C21.5°C69.0%1012.0hPa0.0mm0.1km/hSSE0.0km/h0uvi
01.07.2020 01:1021.5°C21.5°C21.5°C69.0%1012.0hPa0.0mm0.6km/hSSW2.5km/h0uvi
01.07.2020 01:1521.4°C21.4°C21.4°C69.0%1012.0hPa0.0mm0.0km/hNE0.0km/h0uvi
01.07.2020 01:2021.4°C21.4°C21.4°C69.5%1012.0hPa0.0mm0.4km/hNE2.5km/h0uvi
01.07.2020 01:2521.3°C21.4°C21.3°C70.0%1012.0hPa0.0mm0.0km/hSSE0.0km/h0uvi
01.07.2020 01:3021.3°C21.3°C21.3°C70.0%1012.0hPa0.0mm0.0km/hSSE2.5km/h0uvi
01.07.2020 01:3521.2°C21.3°C21.2°C71.0%1012.0hPa0.0mm1.4km/hESE2.5km/h0uvi
01.07.2020 01:4021.2°C21.2°C21.2°C71.0%1012.0hPa0.0mm0.0km/hESE1.8km/h0uvi
01.07.2020 01:4521.1°C21.2°C21.1°C71.0%1012.0hPa0.0mm1.0km/hESE2.5km/h0uvi
01.07.2020 01:5021.1°C21.1°C21.0°C71.0%1012.0hPa0.0mm0.3km/hESE0.0km/h0uvi
01.07.2020 01:5521.0°C21.0°C21.0°C72.0%1012.0hPa0.0mm0.6km/hESE2.2km/h0uvi
01.07.2020 02:0020.9°C21.0°C20.9°C72.0%1012.0hPa0.0mm0.1km/hESE2.2km/h0uvi
01.07.2020 02:0520.9°C20.9°C20.9°C72.0%1012.0hPa0.0mm0.0km/hESE0.0km/h0uvi
01.07.2020 02:1020.8°C20.8°C20.8°C72.0%1012.0hPa0.0mm0.9km/hESE4.3km/h0uvi
01.07.2020 02:1520.7°C20.7°C20.7°C72.5%1012.0hPa0.0mm1.5km/hSSE4.0km/h0uvi
01.07.2020 02:2020.6°C20.7°C20.6°C73.0%1012.0hPa0.0mm1.5km/hSSE4.7km/h0uvi
01.07.2020 02:2520.6°C20.6°C20.5°C73.0%1012.0hPa0.0mm2.5km/hSSE4.7km/h0uvi
01.07.2020 02:3020.5°C20.5°C20.5°C73.0%1012.0hPa0.0mm2.5km/hSSE4.7km/h0uvi
01.07.2020 02:3520.5°C20.5°C20.5°C73.0%1012.0hPa0.0mm2.5km/hSSE4.3km/h0uvi
01.07.2020 02:4020.5°C20.5°C20.5°C73.4%1012.0hPa0.0mm2.6km/hS4.3km/h0uvi
01.07.2020 02:4520.5°C20.5°C20.5°C74.0%1012.0hPa0.0mm1.6km/hESE3.6km/h0uvi
01.07.2020 02:5020.4°C20.5°C20.4°C74.0%1012.0hPa0.0mm1.5km/hSE2.2km/h0uvi
01.07.2020 02:5520.4°C20.4°C20.4°C74.0%1012.0hPa0.0mm0.0km/hSE0.0km/h0uvi
01.07.2020 03:0020.3°C20.3°C20.3°C74.0%1012.0hPa0.0mm0.0km/hSE0.0km/h0uvi
01.07.2020 03:0520.3°C20.3°C20.2°C73.0%1012.0hPa0.0mm1.9km/hSSW4.3km/h0uvi
01.07.2020 03:1020.2°C20.2°C20.1°C74.0%1012.0hPa0.0mm2.3km/hSSE4.7km/h0uvi
01.07.2020 03:1520.1°C20.1°C20.1°C74.0%1012.0hPa0.0mm2.5km/hSSE4.0km/h0uvi
01.07.2020 03:2020.0°C20.0°C20.0°C74.0%1012.0hPa0.0mm2.0km/hSSW4.0km/h0uvi
01.07.2020 03:2520.0°C20.0°C20.0°C74.2%1012.0hPa0.0mm2.3km/hS3.6km/h0uvi
01.07.2020 03:3020.1°C20.1°C20.1°C75.0%1012.0hPa0.0mm1.0km/hS2.5km/h0uvi
01.07.2020 03:3520.0°C20.0°C20.0°C75.0%1012.0hPa0.0mm0.0km/hS1.8km/h0uvi
01.07.2020 03:4020.0°C20.0°C20.0°C75.0%1012.0hPa0.0mm0.0km/hENE0.0km/h0uvi
01.07.2020 03:4519.9°C19.9°C19.8°C75.0%1012.0hPa0.0mm0.8km/hSE2.5km/h0uvi
01.07.2020 03:5019.8°C19.8°C19.8°C75.0%1012.0hPa0.0mm1.0km/hSE3.2km/h0uvi
01.07.2020 03:5519.8°C19.8°C19.8°C76.0%1012.0hPa0.0mm0.6km/hSE3.6km/h0uvi
01.07.2020 04:0019.7°C19.8°C19.7°C76.0%1012.0hPa0.0mm1.4km/hSE3.6km/h0uvi
01.07.2020 04:0519.7°C19.7°C19.7°C76.0%1012.0hPa0.0mm0.7km/hSSE2.2km/h0uvi
01.07.2020 04:1019.7°C19.7°C19.6°C76.6%1012.0hPa0.0mm0.0km/hS0.0km/h0uvi
01.07.2020 04:1519.6°C19.6°C19.6°C76.0%1012.0hPa0.0mm0.0km/hS0.0km/h0uvi
01.07.2020 04:2019.6°C19.6°C19.6°C76.0%1012.0hPa0.0mm0.4km/hS4.0km/h0uvi
01.07.2020 04:2519.6°C19.6°C19.6°C77.0%1012.0hPa0.0mm0.8km/hSSE3.6km/h0uvi
01.07.2020 04:3019.6°C19.6°C19.6°C76.0%1012.0hPa0.0mm0.0km/hENE0.0km/h0uvi
01.07.2020 04:3519.6°C19.6°C19.6°C76.0%1012.0hPa0.0mm1.0km/hSSE3.6km/h0uvi
01.07.2020 04:4019.5°C19.5°C19.5°C76.0%1012.0hPa0.0mm0.0km/hESE0.0km/h0uvi
01.07.2020 04:4519.5°C19.5°C19.5°C76.4%1012.0hPa0.0mm0.0km/hESE1.8km/h0uvi
01.07.2020 04:5019.5°C19.5°C19.5°C77.0%1012.0hPa0.0mm2.0km/hSE4.0km/h0uvi
01.07.2020 04:5519.5°C19.5°C19.5°C77.0%1012.0hPa0.0mm0.1km/hSSE0.0km/h0uvi
01.07.2020 05:0019.5°C19.5°C19.4°C77.0%1012.0hPa0.0mm0.0km/hSSE1.8km/h0uvi
01.07.2020 05:0519.4°C19.4°C19.4°C77.0%1012.0hPa0.0mm0.3km/hSSE3.6km/h0uvi
01.07.2020 05:1019.4°C19.4°C19.4°C77.5%1012.0hPa0.0mm0.9km/hSSE1.8km/h0uvi
01.07.2020 05:1519.4°C19.4°C19.4°C78.0%1012.0hPa0.0mm0.0km/hSSE1.4km/h0uvi
01.07.2020 05:2019.4°C19.4°C19.4°C78.2%1012.0hPa0.0mm0.8km/hSSE3.2km/h0uvi
01.07.2020 05:2519.4°C19.4°C19.4°C79.0%1012.0hPa0.0mm0.5km/hSSE0.0km/h0uvi
01.07.2020 05:3019.4°C19.4°C19.4°C79.0%1012.0hPa0.0mm1.8km/hSE3.6km/h0uvi
01.07.2020 05:3519.4°C19.4°C19.4°C79.0%1012.0hPa0.0mm1.5km/hSSE3.6km/h0uvi
01.07.2020 05:4019.4°C19.4°C19.4°C78.6%1012.0hPa0.0mm0.6km/hSE4.0km/h0uvi
01.07.2020 05:4519.4°C19.4°C19.4°C78.0%1012.0hPa0.0mm1.0km/hSE4.0km/h0uvi
01.07.2020 05:5019.4°C19.4°C19.4°C79.0%1012.0hPa0.0mm1.2km/hSE3.6km/h0uvi
01.07.2020 05:5519.4°C19.4°C19.4°C79.0%1012.0hPa0.0mm1.9km/hESE5.4km/h0uvi
01.07.2020 06:0019.4°C19.4°C19.4°C79.0%1012.0hPa0.0mm0.4km/hNE3.2km/h0uvi
01.07.2020 06:0519.4°C19.4°C19.4°C79.0%1012.0hPa0.0mm2.4km/hSSE5.4km/h0uvi
01.07.2020 06:1019.5°C19.5°C19.5°C79.0%1011.4hPa0.0mm2.1km/hSSE4.0km/h0uvi
01.07.2020 06:1519.6°C19.6°C19.5°C79.0%1011.0hPa0.0mm1.9km/hSSE3.6km/h0uvi
01.07.2020 06:2019.6°C19.7°C19.6°C79.0%1011.0hPa0.0mm0.6km/hESE2.5km/h0uvi
01.07.2020 06:2519.7°C19.7°C19.7°C79.0%1011.5hPa0.0mm0.0km/hENE2.2km/h0uvi
01.07.2020 06:3019.8°C19.8°C19.8°C79.0%1012.0hPa0.0mm0.0km/hNE0.0km/h0uvi
01.07.2020 06:3519.9°C19.9°C19.8°C79.0%1012.0hPa0.0mm0.2km/hESE2.5km/h0uvi
01.07.2020 06:4019.9°C19.9°C19.9°C79.0%1011.5hPa0.0mm2.4km/hSSE4.0km/h0uvi
01.07.2020 06:4519.9°C19.9°C19.9°C79.7%1011.0hPa0.0mm2.8km/hSE4.0km/h0uvi
01.07.2020 06:5020.0°C20.0°C19.9°C79.8%1011.0hPa0.0mm0.9km/hSE2.2km/h0uvi
01.07.2020 06:5520.0°C20.1°C20.0°C79.8%1011.6hPa0.0mm0.0km/hSE1.8km/h0uvi
01.07.2020 07:0020.1°C20.1°C20.1°C80.0%1012.0hPa0.0mm2.0km/hESE4.3km/h0uvi
01.07.2020 07:0520.2°C20.2°C20.1°C80.0%1012.0hPa0.0mm1.4km/hSSE4.3km/h0uvi
01.07.2020 07:1020.3°C20.3°C20.2°C80.0%1012.0hPa0.0mm0.0km/hSSE1.8km/h0uvi
01.07.2020 07:1520.4°C20.5°C20.4°C80.0%1012.0hPa0.0mm1.4km/hSSE4.7km/h0uvi
01.07.2020 07:2020.5°C20.5°C20.5°C80.0%1012.0hPa0.0mm0.8km/hNE2.5km/h
01.07.2020 07:2520.7°C20.7°C20.7°C80.0%1012.0hPa0.0mm3.5km/hNE4.7km/h0uvi
01.07.2020 07:3020.7°C20.8°C20.7°C79.0%1012.0hPa0.0mm2.2km/hNE3.2km/h0uvi
01.07.2020 07:3520.9°C20.9°C20.8°C79.0%1012.0hPa0.0mm3.6km/hNE5.4km/h0uvi
01.07.2020 07:4021.0°C21.0°C20.9°C78.2%1012.0hPa0.0mm3.5km/hNE5.0km/h0uvi
01.07.2020 07:4521.1°C21.2°C21.1°C78.0%1012.0hPa0.0mm1.3km/hSSE4.0km/h0uvi
01.07.2020 07:5021.3°C21.3°C21.3°C78.0%1012.0hPa0.0mm2.3km/hNE4.7km/h0uvi
01.07.2020 07:5521.4°C21.4°C21.4°C77.0%1012.0hPa0.0mm2.2km/hENE5.4km/h0uvi
01.07.2020 08:0021.5°C21.5°C21.4°C77.0%1012.0hPa0.0mm1.3km/hSSE4.3km/h0uvi
01.07.2020 08:0521.6°C21.7°C21.6°C76.6%1012.0hPa0.0mm0.3km/hNE4.7km/h0uvi
01.07.2020 08:1021.7°C21.7°C21.7°C76.0%1011.7hPa0.0mm1.7km/hNE3.6km/h0uvi
01.07.2020 08:1521.8°C21.8°C21.7°C75.0%1011.0hPa0.0mm0.7km/hNE4.7km/h0uvi
01.07.2020 08:2021.8°C21.9°C21.8°C75.0%1011.0hPa0.0mm2.7km/hSSE5.8km/h0uvi
01.07.2020 08:2521.9°C21.9°C21.9°C75.0%1011.5hPa0.0mm2.2km/hSSE4.3km/h0uvi
01.07.2020 08:3021.9°C22.0°C21.9°C75.0%1012.0hPa0.0mm0.2km/hSSE2.2km/h0uvi
01.07.2020 08:3522.0°C22.0°C22.0°C74.0%1012.0hPa0.0mm2.3km/hSE4.7km/h0uvi
01.07.2020 08:4022.0°C22.0°C22.0°C73.0%1012.0hPa0.0mm2.4km/hSE3.2km/h0uvi
01.07.2020 08:4522.0°C22.0°C22.0°C73.0%1012.0hPa0.0mm2.6km/hSE4.0km/h0uvi
01.07.2020 08:5022.1°C22.1°C22.0°C72.8%1012.0hPa0.0mm1.8km/hSE4.0km/h0uvi
01.07.2020 08:5522.1°C22.2°C22.1°C72.0%1012.0hPa0.0mm1.0km/hSE4.0km/h0uvi
01.07.2020 09:0022.3°C22.3°C22.2°C71.2%1012.0hPa0.0mm3.0km/hNE4.7km/h0uvi
01.07.2020 09:0522.3°C22.4°C22.3°C68.8%1012.0hPa0.0mm3.2km/hNE4.3km/h0uvi
01.07.2020 09:1022.4°C22.5°C22.4°C69.0%1012.0hPa0.0mm2.5km/hNE6.8km/h0uvi
01.07.2020 09:1522.5°C22.5°C22.5°C68.7%1012.0hPa0.0mm3.0km/hNE6.8km/h0uvi
01.07.2020 09:2022.6°C22.6°C22.6°C69.5%1012.0hPa0.0mm1.9km/hNE4.0km/h2uvi
01.07.2020 09:2522.7°C22.8°C22.7°C70.6%1012.0hPa0.0mm2.4km/hSE5.4km/h1uvi
01.07.2020 09:3022.8°C22.8°C22.8°C69.0%1012.0hPa0.0mm3.4km/hNE6.1km/h2uvi
01.07.2020 09:3522.9°C23.0°C22.9°C66.8%1012.0hPa0.0mm3.0km/hNE6.1km/h1uvi
01.07.2020 09:4023.1°C23.2°C23.1°C66.3%1011.5hPa0.0mm2.1km/hNW5.4km/h2uvi
01.07.2020 09:4523.3°C23.4°C23.2°C65.4%1011.0hPa0.0mm1.5km/hNE3.6km/h2uvi
01.07.2020 09:5023.6°C23.7°C23.4°C63.6%1011.0hPa0.0mm1.7km/hWSW2.2km/h2uvi
01.07.2020 09:5523.8°C24.0°C23.7°C62.5%1011.8hPa0.0mm1.5km/hESE3.2km/h3uvi
01.07.2020 10:0024.1°C24.2°C24.0°C61.2%1012.0hPa0.0mm3.6km/hSSE7.9km/h3uvi
01.07.2020 10:0524.6°C24.8°C24.4°C59.8%1012.0hPa0.0mm2.3km/hSSE4.3km/h3uvi
01.07.2020 10:1024.9°C25.0°C24.8°C57.5%1012.0hPa0.0mm2.8km/hSSE5.8km/h3uvi
01.07.2020 10:1525.2°C25.4°C25.0°C55.8%1012.0hPa0.0mm0.8km/hENE3.6km/h3uvi
01.07.2020 10:2025.5°C25.6°C25.4°C52.8%1012.0hPa0.0mm3.0km/hNE7.9km/h4uvi
01.07.2020 10:2525.3°C25.4°C25.3°C52.3%1012.0hPa0.0mm4.9km/hNE6.8km/h4uvi
01.07.2020 10:3025.4°C25.5°C25.3°C52.6%1012.0hPa0.0mm3.6km/hNE6.8km/h3uvi
01.07.2020 10:3525.6°C25.7°C25.5°C55.3%1012.0hPa0.0mm1.9km/hWSW5.4km/h3uvi
01.07.2020 10:4025.8°C25.9°C25.7°C52.8%1012.0hPa0.0mm2.9km/hNE5.4km/h3uvi
01.07.2020 10:4526.1°C26.1°C26.0°C53.8%1012.0hPa0.0mm1.9km/hNE6.1km/h2uvi
01.07.2020 10:5025.5°C25.6°C25.5°C54.2%1012.0hPa0.0mm1.3km/hW4.0km/h0uvi
01.07.2020 10:5525.4°C25.5°C25.3°C55.4%1012.0hPa0.0mm1.4km/hNE3.2km/h0uvi
01.07.2020 11:0025.2°C25.3°C25.2°C56.3%1012.0hPa0.0mm0.4km/hNW2.5km/h0uvi
01.07.2020 11:0525.2°C25.2°C25.1°C58.0%1012.0hPa0.0mm2.8km/hNE5.4km/h4uvi
01.07.2020 11:1025.2°C25.3°C25.1°C57.7%1011.5hPa0.0mm4.6km/hNE7.9km/h4uvi
01.07.2020 11:1525.8°C26.2°C25.3°C58.3%1011.0hPa0.0mm3.0km/hNE7.6km/h5uvi
01.07.2020 11:2026.2°C26.3°C26.1°C53.0%1011.0hPa0.0mm4.4km/hNE10.1km/h4uvi
01.07.2020 11:2526.2°C26.3°C26.1°C54.5%1011.0hPa0.0mm4.8km/hNE9.4km/h3uvi
01.07.2020 11:3026.0°C26.1°C25.9°C54.3%1011.0hPa0.0mm5.8km/hNE9.4km/h3uvi
01.07.2020 11:3525.9°C26.1°C25.8°C54.3%1011.0hPa0.0mm4.2km/hNE6.1km/h3uvi
01.07.2020 11:4026.1°C26.2°C26.1°C56.5%1011.0hPa0.0mm3.1km/hSE5.8km/h2uvi
01.07.2020 11:4526.2°C26.2°C26.1°C57.3%1011.0hPa0.0mm1.8km/hNE3.2km/h2uvi
01.07.2020 11:5025.8°C25.9°C25.7°C57.3%1011.0hPa0.0mm2.8km/hNE6.1km/h1uvi
01.07.2020 11:5525.7°C25.7°C25.7°C57.8%1011.0hPa0.0mm3.3km/hNE8.6km/h1uvi
01.07.2020 12:0025.8°C25.9°C25.7°C57.6%1011.0hPa0.0mm1.0km/hNE4.3km/h1uvi
01.07.2020 12:0525.8°C25.8°C25.7°C57.5%1011.0hPa0.0mm3.2km/hNE5.0km/h1uvi
01.07.2020 12:1025.8°C25.9°C25.7°C57.8%1011.0hPa0.0mm2.0km/hENE4.3km/h1uvi
01.07.2020 12:1525.9°C26.0°C25.8°C58.3%1011.0hPa0.0mm2.4km/hSSE6.1km/h0uvi
01.07.2020 12:2025.8°C25.8°C25.8°C58.0%1011.0hPa0.0mm1.8km/hSSE4.3km/h0uvi
01.07.2020 12:2525.7°C25.8°C25.7°C57.3%1011.0hPa0.0mm1.1km/hSE4.0km/h0uvi
01.07.2020 12:3025.7°C25.7°C25.7°C58.0%1011.0hPa0.0mm1.1km/hSSE3.2km/h0uvi
01.07.2020 12:3525.7°C25.7°C25.7°C58.5%1011.0hPa0.0mm2.2km/hSSE5.4km/h0uvi
01.07.2020 12:4025.7°C25.7°C25.7°C58.2%1011.0hPa0.0mm0.5km/hNE1.8km/h0uvi
01.07.2020 12:4525.6°C25.6°C25.5°C58.0%1011.0hPa0.0mm0.6km/hSSW2.5km/h0uvi
01.07.2020 12:5025.4°C25.5°C25.4°C58.5%1011.0hPa0.0mm1.6km/hS3.2km/h0uvi
01.07.2020 12:5525.3°C25.4°C25.2°C59.8%1011.0hPa0.0mm1.4km/hSSE3.6km/h0uvi
01.07.2020 13:0025.2°C25.2°C25.1°C61.7%1011.0hPa0.0mm2.3km/hWSW4.3km/h0uvi
01.07.2020 13:0524.9°C25.0°C24.7°C65.4%1011.0hPa1.3mm2.6km/hNW8.6km/h0uvi
01.07.2020 13:1024.1°C24.4°C23.8°C67.6%1011.0hPa2.4mm6.5km/hWSW12.2km/h0uvi
01.07.2020 13:1523.2°C23.7°C22.8°C68.8%1011.0hPa7.8mm6.7km/hWSW17.6km/h0uvi
01.07.2020 13:2022.4°C22.6°C22.3°C61.8%1011.0hPa5.1mm7.2km/hNE16.2km/h0uvi
01.07.2020 13:2522.0°C22.1°C22.0°C64.7%1011.8hPa0.2mm2.1km/hNW4.7km/h0uvi
01.07.2020 13:3021.8°C21.9°C21.8°C70.0%1012.0hPa0.0mm2.6km/hWSW6.8km/h0uvi
01.07.2020 13:3521.8°C21.8°C21.8°C72.3%1012.0hPa0.3mm1.9km/hNW3.6km/h0uvi
01.07.2020 13:4021.7°C21.8°C21.6°C76.8%1012.0hPa0.8mm2.2km/hNW6.1km/h0uvi
01.07.2020 13:4521.5°C21.6°C21.4°C78.5%1012.0hPa0.8mm1.8km/hSSW5.8km/h0uvi
01.07.2020 13:5021.4°C21.4°C21.4°C78.7%1012.0hPa0.2mm2.0km/hNW3.6km/h0uvi
01.07.2020 13:5521.4°C21.4°C21.3°C80.7%1012.0hPa0.0mm2.7km/hNW5.0km/h0uvi
01.07.2020 14:0021.3°C21.3°C21.3°C82.6%1012.0hPa0.3mm1.0km/hNW4.0km/h0uvi
01.07.2020 14:0521.3°C21.3°C21.2°C83.2%1012.0hPa0.0mm3.0km/hSSE5.0km/h0uvi
01.07.2020 14:1021.2°C21.2°C21.2°C84.0%1012.0hPa0.0mm2.9km/hSSE4.3km/h0uvi
01.07.2020 14:1521.2°C21.2°C21.2°C84.0%1012.0hPa0.0mm2.8km/hSSE4.7km/h0uvi
01.07.2020 14:2021.2°C21.2°C21.2°C84.5%1012.0hPa0.2mm3.3km/hSSE7.6km/h0uvi
01.07.2020 14:2521.1°C21.2°C21.1°C85.0%1012.0hPa0.0mm2.1km/hSE4.7km/h0uvi
01.07.2020 14:3021.1°C21.1°C21.1°C84.2%1012.0hPa0.0mm0.5km/hESE4.0km/h0uvi
01.07.2020 14:3521.1°C21.2°C21.1°C84.7%1012.0hPa0.3mm1.6km/hNE4.0km/h0uvi
01.07.2020 14:4021.2°C21.2°C21.2°C86.0%1012.0hPa1.1mm2.7km/hSSE6.1km/h0uvi
01.07.2020 14:4521.0°C21.1°C21.0°C86.6%1012.0hPa0.0mm4.0km/hSSE6.1km/h0uvi
01.07.2020 14:5021.1°C21.2°C21.0°C89.2%1012.0hPa0.3mm0.7km/hSE2.2km/h1uvi
01.07.2020 14:5521.1°C21.1°C21.0°C89.0%1012.0hPa0.0mm1.7km/hNE4.3km/h1uvi
01.07.2020 15:0021.4°C21.5°C21.3°C91.6%1012.0hPa0.0mm0.9km/hNE2.5km/h1uvi
01.07.2020 15:0521.2°C21.5°C21.0°C88.6%1012.0hPa0.0mm0.0km/hESE0.0km/h1uvi
01.07.2020 15:1021.4°C21.5°C21.4°C88.0%1012.0hPa0.0mm1.8km/hSE5.4km/h1uvi
01.07.2020 15:1521.5°C21.6°C21.4°C84.0%1012.0hPa0.0mm3.1km/hNE5.8km/h2uvi
01.07.2020 15:2021.6°C21.7°C21.6°C81.3%1012.0hPa0.0mm4.1km/hNE6.5km/h2uvi
01.07.2020 15:2522.1°C22.4°C21.9°C79.7%1012.0hPa0.0mm1.6km/hSE4.0km/h3uvi
01.07.2020 15:3022.4°C22.6°C22.3°C79.0%1012.0hPa0.0mm0.8km/hSE4.3km/h3uvi
01.07.2020 15:3522.6°C22.8°C22.4°C78.4%1012.0hPa0.0mm2.2km/hNE4.0km/h3uvi
01.07.2020 15:4023.2°C23.4°C23.0°C76.5%1011.4hPa0.0mm0.9km/hSE4.0km/h3uvi
01.07.2020 15:4523.6°C23.6°C23.5°C74.3%1011.0hPa0.0mm2.9km/hSE5.4km/h3uvi
01.07.2020 15:5023.7°C23.9°C23.6°C71.5%1011.0hPa0.0mm0.6km/hNE3.6km/h3uvi
01.07.2020 15:5524.1°C24.2°C24.0°C71.0%1011.0hPa0.0mm2.9km/hSSE6.5km/h3uvi
01.07.2020 16:0023.9°C24.1°C23.7°C66.8%1011.0hPa0.0mm1.0km/hNE4.3km/h4uvi
01.07.2020 16:0524.5°C24.7°C24.2°C66.2%1011.0hPa0.0mm2.1km/hSE6.8km/h4uvi
01.07.2020 16:1024.4°C25.0°C24.0°C59.0%1011.0hPa0.0mm2.3km/hNE6.5km/h4uvi
01.07.2020 16:1524.2°C24.7°C24.0°C61.2%1011.0hPa0.0mm3.3km/hNE5.4km/h4uvi
01.07.2020 16:2025.0°C25.3°C24.8°C61.0%1011.0hPa0.0mm1.6km/hSSE5.0km/h4uvi
01.07.2020 16:2524.9°C24.9°C24.8°C58.6%1011.0hPa0.0mm2.8km/hNE5.8km/h3uvi
01.07.2020 16:3025.1°C25.5°C24.8°C56.8%1011.0hPa0.0mm1.8km/hENE5.4km/h3uvi
01.07.2020 16:3525.3°C25.6°C25.1°C56.5%1011.0hPa0.0mm1.0km/hNE4.3km/h3uvi
01.07.2020 16:4026.1°C26.3°C25.6°C54.2%1011.0hPa0.0mm1.8km/hSSE5.0km/h3uvi
01.07.2020 16:4526.6°C26.6°C26.5°C53.5%1011.0hPa0.0mm2.4km/hSSE6.8km/h3uvi
01.07.2020 16:5026.2°C26.5°C25.9°C49.8%1011.0hPa0.0mm3.8km/hNE7.9km/h2uvi
01.07.2020 16:5525.9°C26.0°C25.7°C52.8%1010.5hPa0.0mm1.2km/hSSE4.0km/h1uvi
01.07.2020 17:0025.4°C25.5°C25.3°C51.7%1010.0hPa0.0mm2.2km/hNE5.4km/h2uvi
01.07.2020 17:0526.0°C26.2°C25.9°C51.2%1010.0hPa0.0mm1.7km/hESE5.4km/h2uvi
01.07.2020 17:1026.2°C26.4°C26.0°C48.8%1010.0hPa0.0mm2.0km/hNE6.5km/h2uvi
01.07.2020 17:1526.2°C26.4°C26.1°C49.0%1010.0hPa0.0mm1.6km/hENE5.4km/h2uvi
01.07.2020 17:2026.1°C26.2°C26.1°C47.2%1010.0hPa0.0mm3.1km/hNE6.1km/h2uvi
01.07.2020 17:2526.2°C26.3°C26.0°C47.2%1010.0hPa0.0mm2.7km/hNE5.4km/h2uvi
01.07.2020 17:3026.2°C26.3°C26.1°C45.8%1010.0hPa0.0mm2.8km/hNE6.5km/h2uvi
01.07.2020 17:3526.1°C26.2°C25.9°C46.0%1010.0hPa0.0mm2.7km/hNE6.1km/h1uvi
01.07.2020 17:4026.1°C26.2°C25.9°C48.3%1009.4hPa0.0mm3.8km/hNE7.9km/h1uvi
01.07.2020 17:4526.0°C26.1°C26.0°C46.0%1009.0hPa0.0mm4.6km/hNE8.6km/h1uvi
01.07.2020 17:5026.1°C26.3°C26.0°C46.3%1009.0hPa0.0mm3.1km/hNE5.4km/h1uvi
01.07.2020 17:5525.9°C26.0°C25.7°C47.2%1009.0hPa0.0mm4.2km/hNE7.9km/h1uvi
01.07.2020 18:0025.7°C25.8°C25.6°C49.5%1009.0hPa0.0mm5.1km/hNE6.8km/h1uvi
01.07.2020 18:0525.8°C26.0°C25.7°C49.2%1009.0hPa0.0mm2.4km/hNE3.6km/h0uvi
01.07.2020 18:1026.1°C26.1°C26.0°C49.8%1009.7hPa0.0mm2.5km/hNE4.7km/h0uvi
01.07.2020 18:1526.0°C26.1°C25.9°C49.5%1010.0hPa0.0mm2.2km/hNE4.0km/h0uvi
01.07.2020 18:2025.9°C26.2°C25.8°C52.0%1010.0hPa0.0mm1.0km/hNE3.6km/h0uvi
01.07.2020 18:2526.0°C26.0°C26.0°C51.0%1010.0hPa0.0mm2.1km/hNE4.3km/h0uvi
01.07.2020 18:3026.0°C26.0°C25.9°C54.0%1010.0hPa0.0mm0.6km/hENE1.8km/h0uvi
01.07.2020 18:3525.9°C25.9°C25.9°C54.0%1010.0hPa0.0mm0.2km/hSSE3.2km/h0uvi
01.07.2020 18:4025.8°C25.8°C25.8°C54.0%1010.0hPa0.0mm0.3km/hNE4.0km/h0uvi
01.07.2020 18:4525.6°C25.7°C25.5°C54.2%1010.0hPa0.0mm1.5km/hNE5.4km/h0uvi
01.07.2020 18:5025.4°C25.5°C25.4°C55.5%1010.0hPa0.0mm0.0km/hSSE2.5km/h0uvi
01.07.2020 18:5525.3°C25.3°C25.3°C56.2%1010.0hPa0.0mm0.5km/hSSE3.2km/h0uvi
01.07.2020 19:0025.1°C25.2°C25.1°C58.0%1010.0hPa0.0mm0.0km/hSSE1.8km/h0uvi
01.07.2020 19:0525.0°C25.1°C25.0°C58.0%1010.0hPa0.0mm0.0km/hSSE0.0km/h0uvi
01.07.2020 19:1024.9°C25.0°C24.9°C58.6%1010.0hPa0.0mm0.2km/hSSE3.6km/h0uvi
01.07.2020 19:1524.8°C24.9°C24.7°C60.2%1010.0hPa0.0mm1.9km/hSSE4.7km/h0uvi
01.07.2020 19:2024.6°C24.7°C24.5°C62.0%1010.0hPa0.0mm1.4km/hSE3.6km/h0uvi
01.07.2020 19:2524.4°C24.4°C24.4°C62.5%1010.0hPa0.0mm2.9km/hSSE4.3km/h0uvi
01.07.2020 19:3024.2°C24.3°C24.2°C64.0%1010.0hPa0.0mm3.2km/hSSE5.4km/h0uvi
01.07.2020 19:3524.1°C24.1°C24.0°C64.8%1010.0hPa0.0mm3.5km/hSSE5.8km/h0uvi
01.07.2020 19:4023.9°C24.0°C23.8°C68.5%1010.0hPa0.0mm6.0km/hSSW9.7km/h0uvi
01.07.2020 19:4523.8°C23.8°C23.7°C69.2%1010.0hPa0.0mm6.0km/hSSW8.6km/h0uvi
01.07.2020 19:5023.7°C23.7°C23.6°C69.0%1010.0hPa0.0mm0.8km/hSSE2.2km/h0uvi
01.07.2020 19:5523.6°C23.7°C23.6°C69.0%1010.0hPa0.0mm0.0km/hNW5.8km/h0uvi
01.07.2020 20:0023.6°C23.6°C23.6°C69.5%1010.0hPa2.1mm2.7km/hW5.4km/h0uvi
01.07.2020 20:0523.3°C23.5°C23.1°C71.0%1010.0hPa4.0mm4.1km/hSE10.4km/h0uvi
01.07.2020 20:1022.8°C23.0°C22.6°C72.2%1010.6hPa0.2mm2.7km/hNE6.8km/h0uvi
01.07.2020 20:1522.3°C22.4°C22.1°C72.5%1011.0hPa0.0mm5.3km/hSSE8.6km/h0uvi
01.07.2020 20:2021.6°C21.9°C21.2°C71.8%1011.0hPa1.4mm8.2km/hSSE14.0km/h0uvi
01.07.2020 20:2520.9°C21.0°C20.7°C70.5%1011.6hPa0.2mm9.3km/hSSE21.2km/h0uvi
01.07.2020 20:3020.5°C20.6°C20.4°C70.0%1012.0hPa0.3mm2.9km/hNE6.8km/h0uvi
01.07.2020 20:3520.2°C20.3°C20.2°C70.8%1012.0hPa0.0mm4.4km/hNE7.9km/h0uvi
01.07.2020 20:4020.1°C20.2°C20.1°C71.8%1012.0hPa0.0mm5.2km/hNE8.6km/h0uvi
01.07.2020 20:4520.1°C20.1°C20.1°C71.8%1012.0hPa0.0mm2.5km/hNE5.8km/h0uvi
01.07.2020 20:5020.0°C20.1°C19.9°C76.6%1012.0hPa0.0mm5.6km/hNE9.7km/h0uvi
01.07.2020 20:5519.8°C19.9°C19.7°C79.8%1011.5hPa0.0mm4.7km/hNE9.4km/h0uvi
01.07.2020 21:0019.6°C19.7°C19.4°C81.8%1011.0hPa0.0mm6.0km/hNE10.1km/h0uvi
01.07.2020 21:0519.3°C19.4°C19.2°C82.0%1011.0hPa0.0mm3.4km/hSE7.9km/h0uvi
01.07.2020 21:1019.2°C19.2°C19.1°C82.0%1011.6hPa0.0mm2.4km/hNE6.8km/h0uvi
01.07.2020 21:1519.0°C19.1°C19.0°C82.5%1012.0hPa0.0mm3.9km/hSE7.9km/h0uvi
01.07.2020 21:2019.0°C19.0°C19.0°C83.2%1012.0hPa0.0mm5.3km/hSSW7.9km/h0uvi
01.07.2020 21:2519.0°C19.0°C19.0°C84.5%1012.0hPa0.0mm2.3km/hSSE6.5km/h0uvi
01.07.2020 21:3019.0°C19.0°C19.0°C84.5%1012.0hPa0.0mm2.6km/hSE5.0km/h0uvi
01.07.2020 21:3519.0°C19.0°C19.0°C84.0%1012.0hPa0.0mm0.6km/hSE1.4km/h0uvi
01.07.2020 21:4019.0°C19.0°C18.9°C84.0%1012.0hPa0.0mm0.6km/hSE2.5km/h0uvi
01.07.2020 21:4518.9°C18.9°C18.8°C84.0%1012.0hPa0.0mm0.5km/hE3.2km/h0uvi
01.07.2020 21:5018.8°C18.8°C18.7°C84.0%1012.0hPa0.0mm2.3km/hNE5.0km/h0uvi
01.07.2020 21:5518.7°C18.7°C18.6°C84.0%1012.0hPa0.0mm0.1km/hENE1.8km/h0uvi
01.07.2020 22:0018.5°C18.6°C18.5°C84.0%1012.0hPa0.0mm0.0km/hNE0.0km/h0uvi
01.07.2020 22:0518.4°C18.5°C18.4°C84.0%1012.0hPa0.0mm0.0km/hNE0.0km/h0uvi
01.07.2020 22:1018.3°C18.4°C18.3°C84.0%1012.0hPa0.0mm0.0km/hNE0.0km/h0uvi
01.07.2020 22:1518.2°C18.3°C18.2°C84.0%1012.0hPa0.0mm0.0km/hNE0.0km/h0uvi
01.07.2020 22:2018.2°C18.2°C18.1°C83.8%1012.0hPa0.0mm0.7km/hESE3.2km/h0uvi
01.07.2020 22:2518.1°C18.1°C18.1°C84.4%1012.0hPa0.0mm0.3km/hSSE4.3km/h0uvi
01.07.2020 22:3018.1°C18.2°C18.1°C85.0%1012.0hPa0.0mm1.8km/hSSW3.2km/h0uvi
01.07.2020 22:3518.2°C18.2°C18.2°C86.0%1012.0hPa0.0mm0.7km/hSSW4.3km/h0uvi
01.07.2020 22:4018.2°C18.2°C18.2°C86.0%1012.0hPa0.0mm1.7km/hWSW3.6km/h0uvi
01.07.2020 22:4518.2°C18.2°C18.2°C86.8%1012.0hPa0.0mm2.0km/hNW5.8km/h0uvi
01.07.2020 22:5018.3°C18.3°C18.3°C87.7%1012.0hPa0.0mm1.1km/hWSW5.8km/h0uvi
01.07.2020 22:5518.3°C18.3°C18.3°C88.0%1012.7hPa0.0mm3.3km/hSSE6.5km/h0uvi
01.07.2020 23:0018.3°C18.4°C18.3°C88.7%1013.0hPa0.0mm4.2km/hSSW9.7km/h0uvi
01.07.2020 23:0518.5°C18.6°C18.4°C89.2%1013.0hPa0.0mm4.4km/hSSE10.4km/h0uvi
01.07.2020 23:1018.8°C18.8°C18.7°C89.0%1013.0hPa0.0mm4.9km/hNE9.4km/h0uvi
01.07.2020 23:1518.8°C18.8°C18.7°C88.0%1013.0hPa0.0mm4.1km/hSSE13.7km/h0uvi
01.07.2020 23:2018.7°C18.7°C18.7°C87.0%1013.0hPa0.5mm4.9km/hSSW7.9km/h0uvi
01.07.2020 23:2518.7°C18.7°C18.6°C87.0%1013.0hPa0.3mm0.9km/hSSW4.7km/h0uvi
01.07.2020 23:3018.6°C18.6°C18.6°C87.0%1013.0hPa0.0mm0.0km/hSSW0.0km/h0uvi
01.07.2020 23:3518.5°C18.6°C18.5°C87.0%1013.0hPa0.0mm1.1km/hSSW4.0km/h0uvi
01.07.2020 23:4018.5°C18.5°C18.5°C87.0%1013.0hPa0.0mm1.4km/hSSW4.3km/h0uvi
01.07.2020 23:4518.4°C18.5°C18.4°C87.0%1013.0hPa0.0mm3.5km/hSSW6.5km/h0uvi
01.07.2020 23:5018.4°C18.4°C18.4°C88.0%1013.0hPa0.0mm4.3km/hSSW7.9km/h0uvi
01.07.2020 23:5518.3°C18.4°C18.3°C88.0%1013.0hPa0.0mm1.3km/hSSE3.2km/h0uvi
02.07.2020 00:0018.3°C18.4°C18.3°C88.2%1013.0hPa0.0mm1.3km/hNE4.0km/h0uvi
02.07.2020 00:0518.4°C18.4°C18.3°C89.4%1013.0hPa0.0mm3.5km/hNE5.0km/h0uvi
02.07.2020 00:1018.3°C18.3°C18.3°C90.0%1013.0hPa0.0mm0.8km/hNE3.6km/h0uvi
02.07.2020 00:1518.2°C18.3°C18.2°C90.0%1013.0hPa0.0mm0.0km/hSSE1.8km/h0uvi
02.07.2020 00:2018.2°C18.2°C18.2°C90.0%1013.0hPa0.0mm1.4km/hSSE3.2km/h0uvi
02.07.2020 00:2518.2°C18.2°C18.2°C90.0%1013.0hPa0.0mm0.7km/hSSW3.6km/h0uvi
02.07.2020 00:3018.1°C18.2°C18.1°C90.0%1013.0hPa0.0mm0.5km/hS2.5km/h0uvi
02.07.2020 00:3518.1°C18.1°C18.1°C90.0%1013.0hPa0.0mm0.0km/hESE0.0km/h0uvi
02.07.2020 00:4018.0°C18.1°C18.0°C90.0%1013.0hPa0.0mm0.0km/hESE2.2km/h0uvi
02.07.2020 00:4518.0°C18.0°C18.0°C90.0%1013.0hPa0.0mm0.1km/hENE1.8km/h0uvi
02.07.2020 00:5018.0°C18.0°C17.9°C90.3%1013.0hPa0.0mm0.1km/hENE1.4km/h0uvi
02.07.2020 00:5517.9°C17.9°C17.9°C91.0%1013.0hPa0.0mm0.0km/hENE0.0km/h0uvi
02.07.2020 01:0017.9°C17.9°C17.9°C91.0%1013.0hPa0.0mm0.8km/hNE2.2km/h0uvi
02.07.2020 01:0517.9°C17.9°C17.9°C91.0%1013.0hPa0.0mm0.0km/hNE0.0km/h0uvi
02.07.2020 01:1017.9°C17.9°C17.9°C91.0%1013.0hPa0.0mm0.0km/hNE0.0km/h0uvi
02.07.2020 01:1517.9°C17.9°C17.8°C91.8%1013.0hPa0.0mm0.3km/hSSW3.6km/h0uvi
02.07.2020 01:2017.8°C17.8°C17.7°C91.5%1013.0hPa0.0mm1.6km/hSE3.2km/h0uvi
02.07.2020 01:2517.7°C17.7°C17.6°C91.0%1013.0hPa0.0mm1.8km/hSSW3.2km/h0uvi
02.07.2020 01:3017.6°C17.6°C17.6°C91.0%1013.0hPa0.0mm0.0km/hWSW1.8km/h0uvi
02.07.2020 01:3517.6°C17.6°C17.6°C91.8%1013.0hPa0.0mm0.0km/hWSW0.0km/h0uvi
02.07.2020 01:4017.6°C17.6°C17.6°C92.0%1012.5hPa0.0mm1.3km/hWSW4.3km/h0uvi
02.07.2020 01:4517.6°C17.6°C17.5°C92.0%1012.0hPa0.0mm1.7km/hSSW4.0km/h0uvi
02.07.2020 01:5017.5°C17.5°C17.5°C92.0%1012.0hPa0.0mm0.2km/hSSW0.0km/h0uvi
02.07.2020 01:5517.4°C17.5°C17.4°C92.0%1011.4hPa0.0mm0.0km/hSSW0.0km/h0uvi
02.07.2020 02:0017.4°C17.4°C17.4°C92.0%1011.0hPa0.0mm0.4km/hNW2.5km/h0uvi
02.07.2020 02:0517.4°C17.4°C17.4°C92.0%1011.0hPa0.0mm0.0km/hNW0.0km/h0uvi
02.07.2020 02:1017.4°C17.4°C17.4°C92.0%1011.5hPa0.0mm0.0km/hNW0.0km/h0uvi
02.07.2020 02:1517.3°C17.3°C17.3°C92.0%1012.0hPa0.0mm0.0km/hSSW0.0km/h0uvi
02.07.2020 02:2017.3°C17.3°C17.3°C92.0%1012.0hPa0.0mm0.0km/hSSW3.6km/h0uvi
02.07.2020 02:2517.3°C17.3°C17.3°C92.0%1012.0hPa0.0mm0.3km/hWSW2.2km/h0uvi
02.07.2020 02:3017.2°C17.3°C17.2°C92.0%1012.0hPa0.0mm0.4km/hWSW2.5km/h0uvi
02.07.2020 02:3517.2°C17.2°C17.2°C92.0%1012.0hPa0.0mm0.3km/hWSW2.2km/h0uvi
02.07.2020 02:4017.1°C17.2°C17.1°C92.0%1012.0hPa0.0mm0.5km/hWSW3.2km/h0uvi
02.07.2020 02:4517.1°C17.1°C17.1°C92.0%1012.0hPa0.0mm1.8km/hWSW4.0km/h0uvi
02.07.2020 02:5017.1°C17.1°C17.1°C92.0%1012.0hPa0.0mm0.2km/hWSW2.5km/h0uvi
02.07.2020 02:5517.0°C17.0°C17.0°C92.0%1012.0hPa0.0mm1.1km/hWSW3.2km/h0uvi
02.07.2020 03:0017.1°C17.1°C17.0°C92.0%1012.0hPa0.0mm1.8km/hSSW3.6km/h0uvi
02.07.2020 03:0517.1°C17.1°C17.1°C92.0%1012.0hPa0.0mm0.4km/hSSW1.4km/h0uvi
02.07.2020 03:1017.0°C17.1°C17.0°C92.8%1012.0hPa0.0mm0.0km/hSSW0.0km/h0uvi
02.07.2020 03:1517.0°C17.0°C17.0°C93.0%1012.0hPa0.0mm0.5km/hSW3.2km/h0uvi
02.07.2020 03:2017.0°C17.0°C16.9°C92.8%1012.0hPa0.0mm2.2km/hSSW5.8km/h0uvi
02.07.2020 03:2516.9°C16.9°C16.8°C93.0%1012.0hPa0.0mm2.1km/hSSW4.7km/h0uvi
02.07.2020 03:3016.9°C16.9°C16.8°C93.0%1012.0hPa0.0mm2.4km/hSSW4.0km/h0uvi
02.07.2020 03:3516.8°C16.8°C16.8°C93.0%1012.0hPa0.0mm2.4km/hSSW3.2km/h0uvi
02.07.2020 03:4016.8°C16.8°C16.8°C93.0%1012.0hPa0.0mm0.5km/hS2.5km/h0uvi
02.07.2020 03:4516.8°C16.8°C16.8°C93.0%1012.0hPa0.0mm0.0km/hS0.0km/h0uvi
02.07.2020 03:5016.7°C16.7°C16.7°C93.0%1012.0hPa0.0mm0.0km/hS2.2km/h0uvi
02.07.2020 03:5516.7°C16.8°C16.7°C93.0%1012.0hPa0.0mm0.5km/hS3.2km/h0uvi
02.07.2020 04:0016.7°C16.7°C16.7°C93.0%1012.0hPa0.0mm1.4km/hS3.2km/h0uvi
02.07.2020 04:0516.7°C16.7°C16.7°C93.0%1012.0hPa0.0mm0.7km/hSSW2.5km/h0uvi
02.07.2020 04:1016.7°C16.8°C16.7°C94.0%1012.0hPa0.0mm0.6km/hSSW2.5km/h0uvi
02.07.2020 04:1516.7°C16.7°C16.6°C93.5%1012.0hPa0.0mm1.1km/hWNW3.2km/h0uvi
02.07.2020 04:2016.7°C16.7°C16.6°C93.2%1012.0hPa0.0mm0.0km/hNW2.2km/h0uvi
02.07.2020 04:2516.7°C16.8°C16.7°C94.0%1012.0hPa0.0mm0.2km/hNW2.2km/h0uvi
02.07.2020 04:3016.9°C16.9°C16.8°C94.0%1012.0hPa0.0mm0.7km/hWSW2.5km/h0uvi
02.07.2020 04:3516.9°C16.9°C16.9°C94.0%1012.0hPa0.0mm2.0km/hSSW3.2km/h0uvi
02.07.2020 04:4016.9°C17.0°C16.9°C94.0%1011.4hPa0.0mm1.3km/hSSW4.0km/h0uvi
02.07.2020 04:4516.9°C16.9°C16.9°C94.0%1011.0hPa0.0mm0.6km/hSSW1.8km/h0uvi
02.07.2020 04:5016.9°C16.9°C16.9°C94.0%1011.0hPa0.0mm0.0km/hSSW1.8km/h0uvi
02.07.2020 04:5516.8°C16.8°C16.8°C94.0%1011.6hPa0.0mm0.0km/hSSW2.2km/h0uvi
02.07.2020 05:0016.8°C16.8°C16.8°C94.0%1012.0hPa0.0mm0.6km/hSSW2.2km/h0uvi
02.07.2020 05:0516.8°C16.8°C16.8°C94.0%1012.0hPa0.0mm0.0km/hSSW0.0km/h0uvi
02.07.2020 05:1016.9°C16.9°C16.8°C94.0%1011.4hPa0.2mm0.0km/hSSW0.0km/h0uvi
02.07.2020 05:1517.0°C17.0°C17.0°C94.0%1011.0hPa0.0mm0.0km/hNW2.2km/h0uvi
02.07.2020 05:2017.1°C17.1°C17.0°C94.0%1011.0hPa0.0mm0.3km/hWNW3.2km/h0uvi
02.07.2020 05:2517.1°C17.2°C17.1°C94.0%1011.6hPa0.0mm0.0km/hSSW1.8km/h0uvi
02.07.2020 05:3017.2°C17.2°C17.2°C94.0%1012.0hPa0.3mm2.2km/hSSW4.0km/h0uvi
02.07.2020 05:3517.1°C17.1°C17.1°C94.0%1012.0hPa0.0mm0.6km/hWSW3.2km/h0uvi
02.07.2020 05:4017.1°C17.1°C17.1°C94.0%1012.0hPa0.0mm0.0km/hWSW0.0km/h0uvi
02.07.2020 05:4517.2°C17.2°C17.1°C94.0%1012.0hPa0.0mm0.0km/hWSW0.0km/h0uvi
02.07.2020 05:5017.2°C17.2°C17.2°C95.0%1012.0hPa0.3mm0.0km/hSSW1.4km/h0uvi
02.07.2020 05:5517.2°C17.2°C17.2°C95.0%1012.0hPa0.0mm0.0km/hSSW0.0km/h0uvi
02.07.2020 06:0017.2°C17.2°C17.2°C95.0%1012.0hPa0.2mm0.0km/hNW1.8km/h0uvi
02.07.2020 06:0517.2°C17.3°C17.2°C95.0%1012.0hPa0.0mm0.0km/hSSE0.0km/h0uvi
02.07.2020 06:1017.2°C17.2°C17.2°C95.0%1012.0hPa0.3mm0.0km/hSSE0.0km/h0uvi
02.07.2020 06:1517.2°C17.2°C17.2°C95.0%1012.0hPa0.0mm0.0km/hSSE0.0km/h0uvi
02.07.2020 06:2017.3°C17.3°C17.2°C95.0%1012.0hPa0.2mm0.0km/hSSE3.2km/h0uvi
02.07.2020 06:2517.3°C17.3°C17.3°C95.0%1012.6hPa0.0mm0.0km/hWSW0.0km/h0uvi
02.07.2020 06:3017.3°C17.3°C17.3°C95.0%1013.0hPa0.0mm1.3km/hWSW5.8km/h0uvi
02.07.2020 06:3517.3°C17.3°C17.3°C95.0%1013.0hPa0.3mm1.6km/hWSW3.6km/h0uvi
02.07.2020 06:4017.2°C17.3°C17.2°C95.0%1012.4hPa0.0mm1.0km/hWSW8.6km/h0uvi
02.07.2020 06:4517.2°C17.3°C17.2°C95.0%1012.0hPa0.0mm4.9km/hSSW9.4km/h0uvi
02.07.2020 06:5017.2°C17.2°C17.2°C95.0%1012.0hPa0.0mm4.0km/hSSW6.1km/h0uvi
02.07.2020 06:5517.3°C17.3°C17.3°C95.0%1012.0hPa0.0mm1.0km/hSSW4.0km/h0uvi
02.07.2020 07:0017.3°C17.3°C17.3°C95.0%1012.0hPa0.3mm1.6km/hSSW4.7km/h0uvi
02.07.2020 07:0517.3°C17.3°C17.3°C95.0%1012.0hPa0.0mm1.3km/hWSW5.0km/h0uvi
02.07.2020 07:1017.3°C17.3°C17.3°C95.8%1012.0hPa0.0mm1.5km/hSSW3.2km/h0uvi
02.07.2020 07:1517.4°C17.4°C17.3°C96.0%1012.0hPa0.0mm0.0km/hSSW1.8km/h0uvi
02.07.2020 07:2017.4°C17.4°C17.4°C96.0%1012.0hPa0.0mm0.0km/hSSW2.2km/h0uvi
02.07.2020 07:2517.4°C17.4°C17.4°C96.0%1012.0hPa0.0mm0.0km/hSSW0.0km/h0uvi
02.07.2020 07:3017.5°C17.5°C17.5°C96.0%1012.0hPa0.0mm0.5km/hSSW2.5km/h0uvi
02.07.2020 07:3517.5°C17.5°C17.5°C96.0%1012.0hPa0.0mm0.3km/hSSW2.2km/h0uvi
02.07.2020 07:4017.5°C17.5°C17.5°C96.0%1012.0hPa0.2mm0.8km/hSSW4.0km/h0uvi
02.07.2020 07:4517.5°C17.6°C17.5°C96.0%1012.0hPa0.0mm0.0km/hSSW0.0km/h0uvi
02.07.2020 07:5017.6°C17.6°C17.6°C96.0%1012.0hPa0.0mm0.3km/hSSW